sensor_id;sensor_type;location;lat;lon;timestamp;P1;durP1;ratioP1;P2;durP2;ratioP2
10641;SDS011;5369;49.586;8.646;2022-09-03T00:00:22;1.40;;;1.30;;
10641;SDS011;5369;49.586;8.646;2022-09-03T00:02:59;1.77;;;1.30;;
10641;SDS011;5369;49.586;8.646;2022-09-03T00:05:31;2.30;;;1.30;;
10641;SDS011;5369;49.586;8.646;2022-09-03T00:10:42;1.60;;;1.30;;
10641;SDS011;5369;49.586;8.646;2022-09-03T00:13:13;2.63;;;1.40;;
10641;SDS011;5369;49.586;8.646;2022-09-03T00:15:39;5.43;;;1.30;;
10641;SDS011;5369;49.586;8.646;2022-09-03T00:18:07;1.37;;;1.20;;
10641;SDS011;5369;49.586;8.646;2022-09-03T00:23:03;1.60;;;1.10;;
10641;SDS011;5369;49.586;8.646;2022-09-03T00:25:34;4.00;;;1.20;;
10641;SDS011;5369;49.586;8.646;2022-09-03T00:28:04;1.20;;;1.10;;
10641;SDS011;5369;49.586;8.646;2022-09-03T00:30:31;2.27;;;1.10;;
10641;SDS011;5369;49.586;8.646;2022-09-03T00:35:34;2.07;;;1.23;;
10641;SDS011;5369;49.586;8.646;2022-09-03T00:38:02;1.30;;;1.20;;
10641;SDS011;5369;49.586;8.646;2022-09-03T00:40:44;2.73;;;1.30;;
10641;SDS011;5369;49.586;8.646;2022-09-03T00:43:29;1.40;;;1.30;;
10641;SDS011;5369;49.586;8.646;2022-09-03T00:46:02;2.40;;;1.30;;
10641;SDS011;5369;49.586;8.646;2022-09-03T00:48:32;1.30;;;1.17;;
10641;SDS011;5369;49.586;8.646;2022-09-03T00:51:21;1.17;;;1.07;;
10641;SDS011;5369;49.586;8.646;2022-09-03T00:54:13;1.23;;;1.13;;
10641;SDS011;5369;49.586;8.646;2022-09-03T00:56:41;1.83;;;1.20;;
10641;SDS011;5369;49.586;8.646;2022-09-03T01:02:00;4.20;;;1.30;;
10641;SDS011;5369;49.586;8.646;2022-09-03T01:07:18;3.33;;;1.33;;
10641;SDS011;5369;49.586;8.646;2022-09-03T01:15:14;1.97;;;1.20;;
10641;SDS011;5369;49.586;8.646;2022-09-03T01:23:13;1.00;;;1.00;;
10641;SDS011;5369;49.586;8.646;2022-09-03T01:28:32;1.53;;;1.27;;
10641;SDS011;5369;49.586;8.646;2022-09-03T01:33:42;2.17;;;1.20;;
10641;SDS011;5369;49.586;8.646;2022-09-03T01:39:00;1.87;;;1.20;;
10641;SDS011;5369;49.586;8.646;2022-09-03T01:41:47;2.53;;;1.17;;
10641;SDS011;5369;49.586;8.646;2022-09-03T01:49:59;1.13;;;1.00;;
10641;SDS011;5369;49.586;8.646;2022-09-03T01:52:44;1.27;;;1.10;;
10641;SDS011;5369;49.586;8.646;2022-09-03T01:57:52;2.90;;;1.57;;
10641;SDS011;5369;49.586;8.646;2022-09-03T02:00:20;2.10;;;1.40;;
10641;SDS011;5369;49.586;8.646;2022-09-03T02:02:47;1.87;;;1.40;;
10641;SDS011;5369;49.586;8.646;2022-09-03T02:10:13;1.30;;;1.20;;
10641;SDS011;5369;49.586;8.646;2022-09-03T02:12:39;2.00;;;1.40;;
10641;SDS011;5369;49.586;8.646;2022-09-03T02:15:11;1.33;;;1.23;;
10641;SDS011;5369;49.586;8.646;2022-09-03T02:17:37;1.40;;;1.20;;
10641;SDS011;5369;49.586;8.646;2022-09-03T02:20:07;1.40;;;1.30;;
10641;SDS011;5369;49.586;8.646;2022-09-03T02:22:38;1.30;;;1.20;;
10641;SDS011;5369;49.586;8.646;2022-09-03T02:25:05;2.20;;;1.20;;
10641;SDS011;5369;49.586;8.646;2022-09-03T02:27:31;3.93;;;1.40;;
10641;SDS011;5369;49.586;8.646;2022-09-03T02:29:58;2.90;;;1.40;;
10641;SDS011;5369;49.586;8.646;2022-09-03T02:32:25;3.70;;;1.60;;
10641;SDS011;5369;49.586;8.646;2022-09-03T02:34:51;1.23;;;1.20;;
10641;SDS011;5369;49.586;8.646;2022-09-03T02:37:17;1.27;;;1.17;;
10641;SDS011;5369;49.586;8.646;2022-09-03T02:39:44;1.33;;;1.23;;
10641;SDS011;5369;49.586;8.646;2022-09-03T02:42:11;1.50;;;1.20;;
10641;SDS011;5369;49.586;8.646;2022-09-03T02:44:38;1.37;;;1.27;;
10641;SDS011;5369;49.586;8.646;2022-09-03T02:47:06;2.33;;;1.10;;
10641;SDS011;5369;49.586;8.646;2022-09-03T02:49:33;1.33;;;1.20;;
10641;SDS011;5369;49.586;8.646;2022-09-03T02:52:00;1.60;;;1.30;;
10641;SDS011;5369;49.586;8.646;2022-09-03T02:54:30;1.50;;;1.20;;
10641;SDS011;5369;49.586;8.646;2022-09-03T02:57:00;1.50;;;1.37;;
10641;SDS011;5369;49.586;8.646;2022-09-03T02:59:26;1.27;;;1.17;;
10641;SDS011;5369;49.586;8.646;2022-09-03T03:01:53;1.30;;;1.20;;
10641;SDS011;5369;49.586;8.646;2022-09-03T03:04:19;1.43;;;1.30;;
10641;SDS011;5369;49.586;8.646;2022-09-03T03:06:45;1.73;;;1.20;;
10641;SDS011;5369;49.586;8.646;2022-09-03T03:09:11;1.97;;;1.40;;
10641;SDS011;5369;49.586;8.646;2022-09-03T03:11:38;1.40;;;1.23;;
10641;SDS011;5369;49.586;8.646;2022-09-03T03:14:04;1.93;;;1.27;;
10641;SDS011;5369;49.586;8.646;2022-09-03T03:16:30;1.33;;;1.23;;
10641;SDS011;5369;49.586;8.646;2022-09-03T03:18:57;1.40;;;1.30;;
10641;SDS011;5369;49.586;8.646;2022-09-03T03:21:24;1.63;;;1.27;;
10641;SDS011;5369;49.586;8.646;2022-09-03T03:23:50;2.60;;;1.20;;
10641;SDS011;5369;49.586;8.646;2022-09-03T03:26:17;1.33;;;1.20;;
10641;SDS011;5369;49.586;8.646;2022-09-03T03:28:43;2.53;;;1.33;;
10641;SDS011;5369;49.586;8.646;2022-09-03T03:31:14;2.33;;;1.50;;
10641;SDS011;5369;49.586;8.646;2022-09-03T03:33:40;1.50;;;1.40;;
10641;SDS011;5369;49.586;8.646;2022-09-03T03:36:08;2.70;;;1.30;;
10641;SDS011;5369;49.586;8.646;2022-09-03T03:38:35;1.30;;;1.10;;
10641;SDS011;5369;49.586;8.646;2022-09-03T03:43:36;1.90;;;1.40;;
10641;SDS011;5369;49.586;8.646;2022-09-03T03:46:03;3.83;;;1.47;;
10641;SDS011;5369;49.586;8.646;2022-09-03T03:48:30;1.50;;;1.20;;
10641;SDS011;5369;49.586;8.646;2022-09-03T03:51:03;1.40;;;1.30;;
10641;SDS011;5369;49.586;8.646;2022-09-03T03:53:31;2.40;;;1.37;;
10641;SDS011;5369;49.586;8.646;2022-09-03T03:55:58;2.00;;;1.27;;
10641;SDS011;5369;49.586;8.646;2022-09-03T03:58:26;1.57;;;1.47;;
10641;SDS011;5369;49.586;8.646;2022-09-03T04:00:52;1.43;;;1.20;;
10641;SDS011;5369;49.586;8.646;2022-09-03T04:03:19;2.13;;;1.20;;
10641;SDS011;5369;49.586;8.646;2022-09-03T04:05:54;2.83;;;1.30;;
10641;SDS011;5369;49.586;8.646;2022-09-03T04:08:21;3.00;;;1.30;;
10641;SDS011;5369;49.586;8.646;2022-09-03T04:10:48;1.60;;;1.30;;
10641;SDS011;5369;49.586;8.646;2022-09-03T04:13:14;3.27;;;1.30;;
10641;SDS011;5369;49.586;8.646;2022-09-03T04:15:40;1.67;;;1.30;;
10641;SDS011;5369;49.586;8.646;2022-09-03T04:18:07;1.90;;;1.30;;
10641;SDS011;5369;49.586;8.646;2022-09-03T04:20:34;1.17;;;1.10;;
10641;SDS011;5369;49.586;8.646;2022-09-03T04:23:02;1.57;;;1.30;;
10641;SDS011;5369;49.586;8.646;2022-09-03T04:25:28;4.97;;;1.30;;
10641;SDS011;5369;49.586;8.646;2022-09-03T04:27:54;1.50;;;1.40;;
10641;SDS011;5369;49.586;8.646;2022-09-03T04:30:20;1.50;;;1.40;;
10641;SDS011;5369;49.586;8.646;2022-09-03T04:32:50;2.40;;;1.30;;
10641;SDS011;5369;49.586;8.646;2022-09-03T04:35:20;2.57;;;1.40;;
10641;SDS011;5369;49.586;8.646;2022-09-03T04:37:47;2.80;;;1.30;;
10641;SDS011;5369;49.586;8.646;2022-09-03T04:40:13;1.67;;;1.23;;
10641;SDS011;5369;49.586;8.646;2022-09-03T04:42:39;2.87;;;1.43;;
10641;SDS011;5369;49.586;8.646;2022-09-03T04:45:06;1.73;;;1.40;;
10641;SDS011;5369;49.586;8.646;2022-09-03T04:47:32;1.40;;;1.30;;
10641;SDS011;5369;49.586;8.646;2022-09-03T04:50:02;2.17;;;1.40;;
10641;SDS011;5369;49.586;8.646;2022-09-03T04:52:28;2.53;;;1.37;;
10641;SDS011;5369;49.586;8.646;2022-09-03T04:54:56;2.23;;;1.47;;
10641;SDS011;5369;49.586;8.646;2022-09-03T04:57:22;2.53;;;1.37;;
10641;SDS011;5369;49.586;8.646;2022-09-03T04:59:48;1.60;;;1.20;;
10641;SDS011;5369;49.586;8.646;2022-09-03T05:02:14;1.80;;;1.30;;
10641;SDS011;5369;49.586;8.646;2022-09-03T05:04:41;1.57;;;1.47;;
10641;SDS011;5369;49.586;8.646;2022-09-03T05:07:07;1.33;;;1.20;;
10641;SDS011;5369;49.586;8.646;2022-09-03T05:09:33;2.17;;;1.40;;
10641;SDS011;5369;49.586;8.646;2022-09-03T05:11:59;1.73;;;1.43;;
10641;SDS011;5369;49.586;8.646;2022-09-03T05:14:25;2.67;;;1.60;;
10641;SDS011;5369;49.586;8.646;2022-09-03T05:16:51;3.10;;;1.60;;
10641;SDS011;5369;49.586;8.646;2022-09-03T05:19:17;3.17;;;1.60;;
10641;SDS011;5369;49.586;8.646;2022-09-03T05:21:44;2.53;;;1.50;;
10641;SDS011;5369;49.586;8.646;2022-09-03T05:24:10;1.60;;;1.50;;
10641;SDS011;5369;49.586;8.646;2022-09-03T05:26:37;3.73;;;1.57;;
10641;SDS011;5369;49.586;8.646;2022-09-03T05:29:04;2.40;;;1.50;;
10641;SDS011;5369;49.586;8.646;2022-09-03T05:31:35;2.47;;;1.50;;
10641;SDS011;5369;49.586;8.646;2022-09-03T05:34:02;3.27;;;1.80;;
10641;SDS011;5369;49.586;8.646;2022-09-03T05:36:31;2.03;;;1.50;;
10641;SDS011;5369;49.586;8.646;2022-09-03T05:38:58;2.23;;;1.40;;
10641;SDS011;5369;49.586;8.646;2022-09-03T05:41:25;1.77;;;1.67;;
10641;SDS011;5369;49.586;8.646;2022-09-03T05:43:52;3.10;;;1.40;;
10641;SDS011;5369;49.586;8.646;2022-09-03T05:46:31;1.73;;;1.47;;
10641;SDS011;5369;49.586;8.646;2022-09-03T05:49:01;1.70;;;1.60;;
10641;SDS011;5369;49.586;8.646;2022-09-03T05:51:28;2.80;;;1.70;;
10641;SDS011;5369;49.586;8.646;2022-09-03T05:53:54;3.00;;;1.60;;
10641;SDS011;5369;49.586;8.646;2022-09-03T05:56:22;2.30;;;1.60;;
10641;SDS011;5369;49.586;8.646;2022-09-03T05:58:49;3.80;;;1.50;;
10641;SDS011;5369;49.586;8.646;2022-09-03T06:01:16;3.00;;;1.73;;
10641;SDS011;5369;49.586;8.646;2022-09-03T06:03:44;2.20;;;1.80;;
10641;SDS011;5369;49.586;8.646;2022-09-03T06:06:11;1.73;;;1.53;;
10641;SDS011;5369;49.586;8.646;2022-09-03T06:08:40;3.77;;;1.60;;
10641;SDS011;5369;49.586;8.646;2022-09-03T06:11:09;1.50;;;1.40;;
10641;SDS011;5369;49.586;8.646;2022-09-03T06:13:35;1.50;;;1.40;;
10641;SDS011;5369;49.586;8.646;2022-09-03T06:16:03;2.33;;;1.73;;
10641;SDS011;5369;49.586;8.646;2022-09-03T06:18:29;1.60;;;1.50;;
10641;SDS011;5369;49.586;8.646;2022-09-03T06:20:59;2.63;;;1.50;;
10641;SDS011;5369;49.586;8.646;2022-09-03T06:23:26;2.40;;;1.67;;
10641;SDS011;5369;49.586;8.646;2022-09-03T06:28:25;2.53;;;1.57;;
10641;SDS011;5369;49.586;8.646;2022-09-03T06:30:52;1.63;;;1.53;;
10641;SDS011;5369;49.586;8.646;2022-09-03T06:33:18;1.73;;;1.57;;
10641;SDS011;5369;49.586;8.646;2022-09-03T06:35:44;1.80;;;1.60;;
10641;SDS011;5369;49.586;8.646;2022-09-03T06:38:11;1.93;;;1.83;;
10641;SDS011;5369;49.586;8.646;2022-09-03T06:40:37;2.03;;;1.57;;
10641;SDS011;5369;49.586;8.646;2022-09-03T06:43:04;2.27;;;1.57;;
10641;SDS011;5369;49.586;8.646;2022-09-03T06:45:30;2.30;;;1.60;;
10641;SDS011;5369;49.586;8.646;2022-09-03T06:47:56;1.87;;;1.53;;
10641;SDS011;5369;49.586;8.646;2022-09-03T06:50:22;1.93;;;1.40;;
10641;SDS011;5369;49.586;8.646;2022-09-03T06:52:52;1.93;;;1.73;;
10641;SDS011;5369;49.586;8.646;2022-09-03T06:55:21;2.87;;;1.70;;
10641;SDS011;5369;49.586;8.646;2022-09-03T06:57:48;2.03;;;1.63;;
10641;SDS011;5369;49.586;8.646;2022-09-03T07:00:15;2.40;;;1.63;;
10641;SDS011;5369;49.586;8.646;2022-09-03T07:02:41;3.00;;;1.63;;
10641;SDS011;5369;49.586;8.646;2022-09-03T07:05:09;5.17;;;2.20;;
10641;SDS011;5369;49.586;8.646;2022-09-03T07:07:35;2.40;;;1.90;;
10641;SDS011;5369;49.586;8.646;2022-09-03T07:10:02;2.53;;;1.73;;
10641;SDS011;5369;49.586;8.646;2022-09-03T07:12:30;2.80;;;1.90;;
10641;SDS011;5369;49.586;8.646;2022-09-03T07:14:59;1.93;;;1.83;;
10641;SDS011;5369;49.586;8.646;2022-09-03T07:17:25;2.50;;;1.90;;
10641;SDS011;5369;49.586;8.646;2022-09-03T07:19:51;2.17;;;1.90;;
10641;SDS011;5369;49.586;8.646;2022-09-03T07:22:18;2.00;;;1.70;;
10641;SDS011;5369;49.586;8.646;2022-09-03T07:24:44;2.87;;;1.87;;
10641;SDS011;5369;49.586;8.646;2022-09-03T07:27:11;1.90;;;1.80;;
10641;SDS011;5369;49.586;8.646;2022-09-03T07:29:37;2.30;;;1.90;;
10641;SDS011;5369;49.586;8.646;2022-09-03T07:32:04;2.27;;;2.07;;
10641;SDS011;5369;49.586;8.646;2022-09-03T07:34:30;2.40;;;2.13;;
10641;SDS011;5369;49.586;8.646;2022-09-03T07:36:59;4.73;;;2.50;;
10641;SDS011;5369;49.586;8.646;2022-09-03T07:39:25;5.77;;;2.70;;
10641;SDS011;5369;49.586;8.646;2022-09-03T07:41:52;3.00;;;2.70;;
10641;SDS011;5369;49.586;8.646;2022-09-03T07:44:19;3.37;;;2.73;;
10641;SDS011;5369;49.586;8.646;2022-09-03T07:46:46;6.17;;;2.80;;
10641;SDS011;5369;49.586;8.646;2022-09-03T07:49:14;3.47;;;2.50;;
10641;SDS011;5369;49.586;8.646;2022-09-03T07:51:41;4.17;;;2.50;;
10641;SDS011;5369;49.586;8.646;2022-09-03T07:54:08;2.60;;;2.40;;
10641;SDS011;5369;49.586;8.646;2022-09-03T07:56:35;2.57;;;2.37;;
10641;SDS011;5369;49.586;8.646;2022-09-03T07:59:01;3.40;;;2.37;;
10641;SDS011;5369;49.586;8.646;2022-09-03T08:01:28;3.63;;;2.70;;
10641;SDS011;5369;49.586;8.646;2022-09-03T08:03:57;3.53;;;2.43;;
10641;SDS011;5369;49.586;8.646;2022-09-03T08:06:25;2.50;;;2.30;;
10641;SDS011;5369;49.586;8.646;2022-09-03T08:08:58;3.57;;;2.20;;
10641;SDS011;5369;49.586;8.646;2022-09-03T08:11:26;2.97;;;2.33;;
10641;SDS011;5369;49.586;8.646;2022-09-03T08:13:56;2.33;;;2.13;;
10641;SDS011;5369;49.586;8.646;2022-09-03T08:16:26;2.97;;;2.03;;
10641;SDS011;5369;49.586;8.646;2022-09-03T08:18:53;2.60;;;2.40;;
10641;SDS011;5369;49.586;8.646;2022-09-03T08:21:20;2.97;;;2.47;;
10641;SDS011;5369;49.586;8.646;2022-09-03T08:23:47;4.03;;;2.43;;
10641;SDS011;5369;49.586;8.646;2022-09-03T08:26:14;3.63;;;2.57;;
10641;SDS011;5369;49.586;8.646;2022-09-03T08:28:41;2.70;;;2.50;;
10641;SDS011;5369;49.586;8.646;2022-09-03T08:33:37;3.07;;;2.60;;
10641;SDS011;5369;49.586;8.646;2022-09-03T08:36:05;3.97;;;2.83;;
10641;SDS011;5369;49.586;8.646;2022-09-03T08:38:32;5.00;;;3.07;;
10641;SDS011;5369;49.586;8.646;2022-09-03T08:41:06;3.20;;;2.50;;
10641;SDS011;5369;49.586;8.646;2022-09-03T08:43:37;2.97;;;2.40;;
10641;SDS011;5369;49.586;8.646;2022-09-03T08:46:05;2.83;;;2.63;;
10641;SDS011;5369;49.586;8.646;2022-09-03T08:48:32;4.00;;;2.67;;
10641;SDS011;5369;49.586;8.646;2022-09-03T08:50:58;4.43;;;2.90;;
10641;SDS011;5369;49.586;8.646;2022-09-03T08:53:43;5.37;;;2.80;;
10641;SDS011;5369;49.586;8.646;2022-09-03T08:56:23;2.87;;;2.50;;
10641;SDS011;5369;49.586;8.646;2022-09-03T08:58:50;2.77;;;2.47;;
10641;SDS011;5369;49.586;8.646;2022-09-03T09:09:22;2.97;;;2.67;;
10641;SDS011;5369;49.586;8.646;2022-09-03T09:22:33;3.13;;;2.83;;
10641;SDS011;5369;49.586;8.646;2022-09-03T09:25:00;3.53;;;3.23;;
10641;SDS011;5369;49.586;8.646;2022-09-03T09:27:29;3.40;;;3.10;;
10641;SDS011;5369;49.586;8.646;2022-09-03T09:29:57;3.60;;;3.30;;
10641;SDS011;5369;49.586;8.646;2022-09-03T09:32:26;3.50;;;3.20;;
10641;SDS011;5369;49.586;8.646;2022-09-03T09:34:52;3.50;;;3.10;;
10641;SDS011;5369;49.586;8.646;2022-09-03T09:37:19;5.30;;;3.80;;
10641;SDS011;5369;49.586;8.646;2022-09-03T09:39:56;3.60;;;3.30;;
10641;SDS011;5369;49.586;8.646;2022-09-03T09:42:23;3.73;;;3.43;;
10641;SDS011;5369;49.586;8.646;2022-09-03T09:44:50;4.20;;;3.80;;
10641;SDS011;5369;49.586;8.646;2022-09-03T09:47:24;4.80;;;3.80;;
10641;SDS011;5369;49.586;8.646;2022-09-03T09:49:52;4.60;;;3.80;;
10641;SDS011;5369;49.586;8.646;2022-09-03T09:52:19;4.33;;;3.33;;
10641;SDS011;5369;49.586;8.646;2022-09-03T09:54:50;5.10;;;3.90;;
10641;SDS011;5369;49.586;8.646;2022-09-03T09:57:17;4.70;;;4.17;;
10641;SDS011;5369;49.586;8.646;2022-09-03T09:59:46;3.90;;;3.60;;
10641;SDS011;5369;49.586;8.646;2022-09-03T10:02:24;6.90;;;3.93;;
10641;SDS011;5369;49.586;8.646;2022-09-03T10:04:51;4.63;;;4.23;;
10641;SDS011;5369;49.586;8.646;2022-09-03T10:07:21;5.07;;;4.57;;
10641;SDS011;5369;49.586;8.646;2022-09-03T10:15:01;6.43;;;4.00;;
10641;SDS011;5369;49.586;8.646;2022-09-03T10:17:39;5.43;;;3.90;;
10641;SDS011;5369;49.586;8.646;2022-09-03T10:20:09;4.77;;;4.37;;
10641;SDS011;5369;49.586;8.646;2022-09-03T10:22:53;5.33;;;4.90;;
10641;SDS011;5369;49.586;8.646;2022-09-03T10:25:20;5.53;;;5.00;;
10641;SDS011;5369;49.586;8.646;2022-09-03T10:27:49;5.60;;;5.10;;
10641;SDS011;5369;49.586;8.646;2022-09-03T10:30:18;5.33;;;4.67;;
10641;SDS011;5369;49.586;8.646;2022-09-03T10:35:30;4.60;;;4.23;;
10641;SDS011;5369;49.586;8.646;2022-09-03T10:39:00;4.60;;;4.20;;
10641;SDS011;5369;49.586;8.646;2022-09-03T10:46:02;4.27;;;3.90;;
10641;SDS011;5369;49.586;8.646;2022-09-03T10:48:34;4.07;;;3.73;;
10641;SDS011;5369;49.586;8.646;2022-09-03T10:51:05;3.97;;;3.40;;
10641;SDS011;5369;49.586;8.646;2022-09-03T10:56:21;4.67;;;3.60;;
10641;SDS011;5369;49.586;8.646;2022-09-03T10:59:02;3.30;;;3.00;;
10641;SDS011;5369;49.586;8.646;2022-09-03T11:01:34;3.60;;;3.30;;
10641;SDS011;5369;49.586;8.646;2022-09-03T11:04:19;3.83;;;3.47;;
10641;SDS011;5369;49.586;8.646;2022-09-03T11:06:54;3.40;;;3.10;;
10641;SDS011;5369;49.586;8.646;2022-09-03T11:09:24;10.47;;;3.73;;
10641;SDS011;5369;49.586;8.646;2022-09-03T11:11:54;3.50;;;3.20;;
10641;SDS011;5369;49.586;8.646;2022-09-03T11:14:28;4.00;;;3.60;;
10641;SDS011;5369;49.586;8.646;2022-09-03T11:16:58;3.93;;;3.53;;
10641;SDS011;5369;49.586;8.646;2022-09-03T11:19:32;3.03;;;2.70;;
10641;SDS011;5369;49.586;8.646;2022-09-03T11:21:59;3.70;;;3.40;;
10641;SDS011;5369;49.586;8.646;2022-09-03T11:24:26;3.10;;;2.90;;
10641;SDS011;5369;49.586;8.646;2022-09-03T11:26:58;4.23;;;3.63;;
10641;SDS011;5369;49.586;8.646;2022-09-03T11:29:36;4.20;;;3.80;;
10641;SDS011;5369;49.586;8.646;2022-09-03T11:32:08;3.50;;;3.20;;
10641;SDS011;5369;49.586;8.646;2022-09-03T11:34:46;3.73;;;3.10;;
10641;SDS011;5369;49.586;8.646;2022-09-03T11:39:42;3.07;;;2.80;;
10641;SDS011;5369;49.586;8.646;2022-09-03T11:42:10;3.50;;;3.20;;
10641;SDS011;5369;49.586;8.646;2022-09-03T11:44:40;3.70;;;2.50;;
10641;SDS011;5369;49.586;8.646;2022-09-03T11:47:14;2.50;;;2.30;;
10641;SDS011;5369;49.586;8.646;2022-09-03T11:49:45;2.50;;;2.30;;
10641;SDS011;5369;49.586;8.646;2022-09-03T11:52:12;3.33;;;2.30;;
10641;SDS011;5369;49.586;8.646;2022-09-03T11:54:42;4.10;;;2.40;;
10641;SDS011;5369;49.586;8.646;2022-09-03T11:57:12;2.70;;;2.50;;
10641;SDS011;5369;49.586;8.646;2022-09-03T11:59:42;2.70;;;2.50;;
10641;SDS011;5369;49.586;8.646;2022-09-03T12:02:23;2.30;;;2.10;;
10641;SDS011;5369;49.586;8.646;2022-09-03T12:07:30;2.10;;;1.90;;
10641;SDS011;5369;49.586;8.646;2022-09-03T12:12:30;1.70;;;1.60;;
10641;SDS011;5369;49.586;8.646;2022-09-03T12:17:29;1.40;;;1.30;;
10641;SDS011;5369;49.586;8.646;2022-09-03T12:19:57;1.40;;;1.30;;
10641;SDS011;5369;49.586;8.646;2022-09-03T12:22:28;1.50;;;1.40;;
10641;SDS011;5369;49.586;8.646;2022-09-03T12:25:05;3.33;;;1.20;;
10641;SDS011;5369;49.586;8.646;2022-09-03T12:27:32;1.40;;;1.30;;
10641;SDS011;5369;49.586;8.646;2022-09-03T12:29:59;1.50;;;1.40;;
10641;SDS011;5369;49.586;8.646;2022-09-03T12:32:26;1.50;;;1.40;;
10641;SDS011;5369;49.586;8.646;2022-09-03T12:34:54;1.73;;;1.50;;
10641;SDS011;5369;49.586;8.646;2022-09-03T12:37:21;1.53;;;1.40;;
10641;SDS011;5369;49.586;8.646;2022-09-03T12:39:52;1.40;;;1.30;;
10641;SDS011;5369;49.586;8.646;2022-09-03T12:42:28;1.47;;;1.37;;
10641;SDS011;5369;49.586;8.646;2022-09-03T12:45:03;1.30;;;1.20;;
10641;SDS011;5369;49.586;8.646;2022-09-03T12:47:30;1.43;;;1.33;;
10641;SDS011;5369;49.586;8.646;2022-09-03T12:49:56;1.60;;;1.30;;
10641;SDS011;5369;49.586;8.646;2022-09-03T12:52:26;1.27;;;1.17;;
10641;SDS011;5369;49.586;8.646;2022-09-03T12:57:21;1.60;;;1.50;;
10641;SDS011;5369;49.586;8.646;2022-09-03T12:59:48;1.60;;;1.50;;
10641;SDS011;5369;49.586;8.646;2022-09-03T13:02:19;1.43;;;1.33;;
10641;SDS011;5369;49.586;8.646;2022-09-03T13:04:47;1.40;;;1.30;;
10641;SDS011;5369;49.586;8.646;2022-09-03T13:07:31;1.23;;;1.13;;
10641;SDS011;5369;49.586;8.646;2022-09-03T13:10:00;1.30;;;1.20;;
10641;SDS011;5369;49.586;8.646;2022-09-03T13:12:32;1.60;;;1.50;;
10641;SDS011;5369;49.586;8.646;2022-09-03T13:15:04;1.30;;;1.20;;
10641;SDS011;5369;49.586;8.646;2022-09-03T13:17:43;1.50;;;1.40;;
10641;SDS011;5369;49.586;8.646;2022-09-03T13:25:29;1.33;;;1.20;;
10641;SDS011;5369;49.586;8.646;2022-09-03T13:36:03;1.30;;;1.20;;
10641;SDS011;5369;49.586;8.646;2022-09-03T13:38:53;1.50;;;1.40;;
10641;SDS011;5369;49.586;8.646;2022-09-03T13:41:37;1.60;;;1.50;;
10641;SDS011;5369;49.586;8.646;2022-09-03T13:44:09;1.47;;;1.37;;
10641;SDS011;5369;49.586;8.646;2022-09-03T13:46:47;1.80;;;1.50;;
10641;SDS011;5369;49.586;8.646;2022-09-03T13:49:29;1.60;;;1.50;;
10641;SDS011;5369;49.586;8.646;2022-09-03T13:55:07;1.60;;;1.50;;
10641;SDS011;5369;49.586;8.646;2022-09-03T13:57:49;1.70;;;1.60;;
10641;SDS011;5369;49.586;8.646;2022-09-03T14:00:39;1.60;;;1.50;;
10641;SDS011;5369;49.586;8.646;2022-09-03T14:03:07;1.60;;;1.50;;
10641;SDS011;5369;49.586;8.646;2022-09-03T14:16:23;1.73;;;1.63;;
10641;SDS011;5369;49.586;8.646;2022-09-03T14:21:35;1.60;;;1.50;;
10641;SDS011;5369;49.586;8.646;2022-09-03T14:24:13;1.80;;;1.70;;
10641;SDS011;5369;49.586;8.646;2022-09-03T14:26:48;1.77;;;1.67;;
10641;SDS011;5369;49.586;8.646;2022-09-03T14:29:15;2.10;;;1.40;;
10641;SDS011;5369;49.586;8.646;2022-09-03T14:34:34;2.27;;;1.70;;
10641;SDS011;5369;49.586;8.646;2022-09-03T14:37:07;2.00;;;1.90;;
10641;SDS011;5369;49.586;8.646;2022-09-03T14:39:54;2.63;;;2.00;;
10641;SDS011;5369;49.586;8.646;2022-09-03T14:42:24;2.40;;;2.30;;
10641;SDS011;5369;49.586;8.646;2022-09-03T14:45:11;2.40;;;2.17;;
10641;SDS011;5369;49.586;8.646;2022-09-03T14:47:42;2.30;;;2.10;;
10641;SDS011;5369;49.586;8.646;2022-09-03T14:55:30;2.60;;;2.40;;
10641;SDS011;5369;49.586;8.646;2022-09-03T14:58:09;4.23;;;2.43;;
10641;SDS011;5369;49.586;8.646;2022-09-03T15:08:38;3.10;;;2.80;;
10641;SDS011;5369;49.586;8.646;2022-09-03T15:11:14;2.87;;;2.50;;
10641;SDS011;5369;49.586;8.646;2022-09-03T15:13:48;3.17;;;2.87;;
10641;SDS011;5369;49.586;8.646;2022-09-03T15:26:52;2.90;;;2.70;;
10641;SDS011;5369;49.586;8.646;2022-09-03T15:29:36;2.90;;;2.70;;
10641;SDS011;5369;49.586;8.646;2022-09-03T15:32:15;2.93;;;2.73;;
10641;SDS011;5369;49.586;8.646;2022-09-03T15:37:20;3.40;;;3.10;;
10641;SDS011;5369;49.586;8.646;2022-09-03T15:39:56;3.20;;;2.97;;
10641;SDS011;5369;49.586;8.646;2022-09-03T15:42:25;4.20;;;3.20;;
10641;SDS011;5369;49.586;8.646;2022-09-03T15:44:53;3.30;;;3.00;;
10641;SDS011;5369;49.586;8.646;2022-09-03T15:47:36;3.43;;;3.13;;
10641;SDS011;5369;49.586;8.646;2022-09-03T15:50:13;3.40;;;3.10;;
10641;SDS011;5369;49.586;8.646;2022-09-03T15:55:29;3.80;;;3.30;;
10641;SDS011;5369;49.586;8.646;2022-09-03T16:00:56;3.40;;;3.10;;
10641;SDS011;5369;49.586;8.646;2022-09-03T16:03:21;4.07;;;3.40;;
10641;SDS011;5369;49.586;8.646;2022-09-03T16:05:57;3.47;;;3.20;;
10641;SDS011;5369;49.586;8.646;2022-09-03T16:08:28;3.50;;;3.20;;
10641;SDS011;5369;49.586;8.646;2022-09-03T16:11:04;3.40;;;3.10;;
10641;SDS011;5369;49.586;8.646;2022-09-03T16:13:48;3.60;;;3.30;;
10641;SDS011;5369;49.586;8.646;2022-09-03T16:16:21;3.70;;;3.40;;
10641;SDS011;5369;49.586;8.646;2022-09-03T16:28:52;3.47;;;3.17;;
10641;SDS011;5369;49.586;8.646;2022-09-03T16:36:50;4.07;;;2.90;;
10641;SDS011;5369;49.586;8.646;2022-09-03T16:39:31;3.27;;;2.93;;
10641;SDS011;5369;49.586;8.646;2022-09-03T16:42:03;4.10;;;2.50;;
10641;SDS011;5369;49.586;8.646;2022-09-03T16:44:38;2.50;;;2.30;;
10641;SDS011;5369;49.586;8.646;2022-09-03T16:47:32;2.47;;;2.10;;
10641;SDS011;5369;49.586;8.646;2022-09-03T16:55:23;2.00;;;1.90;;
10641;SDS011;5369;49.586;8.646;2022-09-03T16:58:13;2.50;;;2.30;;
10641;SDS011;5369;49.586;8.646;2022-09-03T17:03:56;2.77;;;2.47;;
10641;SDS011;5369;49.586;8.646;2022-09-03T17:06:02;2.53;;;2.10;;
10641;SDS011;5369;49.586;8.646;2022-09-03T17:16:29;2.40;;;2.20;;
10641;SDS011;5369;49.586;8.646;2022-09-03T17:21:47;2.50;;;2.30;;
10641;SDS011;5369;49.586;8.646;2022-09-03T17:27:19;3.03;;;2.30;;
10641;SDS011;5369;49.586;8.646;2022-09-03T17:35:19;2.67;;;2.20;;
10641;SDS011;5369;49.586;8.646;2022-09-03T17:43:30;2.50;;;2.30;;
10641;SDS011;5369;49.586;8.646;2022-09-03T17:51:25;2.67;;;2.47;;
10641;SDS011;5369;49.586;8.646;2022-09-03T17:53:54;2.70;;;2.50;;
10641;SDS011;5369;49.586;8.646;2022-09-03T17:56:32;2.80;;;2.57;;
10641;SDS011;5369;49.586;8.646;2022-09-03T18:01:52;2.50;;;2.30;;
10641;SDS011;5369;49.586;8.646;2022-09-03T18:04:38;2.60;;;2.40;;
10641;SDS011;5369;49.586;8.646;2022-09-03T18:07:29;2.87;;;2.40;;
10641;SDS011;5369;49.586;8.646;2022-09-03T18:10:44;2.70;;;2.50;;
10641;SDS011;5369;49.586;8.646;2022-09-03T18:18:23;2.80;;;2.60;;
10641;SDS011;5369;49.586;8.646;2022-09-03T18:20:51;2.70;;;2.50;;
10641;SDS011;5369;49.586;8.646;2022-09-03T18:24:00;2.93;;;2.70;;
10641;SDS011;5369;49.586;8.646;2022-09-03T18:26:45;3.10;;;2.80;;
10641;SDS011;5369;49.586;8.646;2022-09-03T18:29:33;3.07;;;2.60;;
10641;SDS011;5369;49.586;8.646;2022-09-03T18:32:19;3.20;;;2.90;;
10641;SDS011;5369;49.586;8.646;2022-09-03T18:35:06;3.90;;;3.00;;
10641;SDS011;5369;49.586;8.646;2022-09-03T18:37:51;3.60;;;3.10;;
10641;SDS011;5369;49.586;8.646;2022-09-03T18:40:49;4.27;;;3.47;;
10641;SDS011;5369;49.586;8.646;2022-09-03T18:43:41;5.40;;;3.80;;
10641;SDS011;5369;49.586;8.646;2022-09-03T18:46:31;4.63;;;3.92;;
10641;SDS011;5369;49.586;8.646;2022-09-03T18:49:39;4.27;;;3.60;;
10641;SDS011;5369;49.586;8.646;2022-09-03T18:59:11;3.90;;;3.50;;
10641;SDS011;5369;49.586;8.646;2022-09-03T19:01:58;3.73;;;3.40;;
10641;SDS011;5369;49.586;8.646;2022-09-03T19:08:40;3.50;;;3.20;;
10641;SDS011;5369;49.586;8.646;2022-09-03T19:10:56;4.30;;;3.90;;
10641;SDS011;5369;49.586;8.646;2022-09-03T19:13:44;3.90;;;3.50;;
10641;SDS011;5369;49.586;8.646;2022-09-03T19:19:24;4.40;;;4.00;;
10641;SDS011;5369;49.586;8.646;2022-09-03T19:22:14;5.00;;;3.43;;
10641;SDS011;5369;49.586;8.646;2022-09-03T19:25:04;4.20;;;3.80;;